Weather History for Grand Etang, NS

Change the Weather History Date:

Wednesday, October 24, 2012

  Actual Average Record
Temperature  
Mean Temperature 42 °F -  
Max Temperature 45 °F - - ()
Min Temperature 40 °F - - ()
Degree Days  
Heating Degree Days 22    
Moisture  
Dew Point 37 °F    
Average Humidity 80    
Maximum Humidity 89    
Minimum Humidity 73    
Precipitation  
Precipitation 0.00 in - - ()
Sea Level Pressure  
Sea Level Pressure 29.92 in    
Wind  
Wind Speed 24 mph ()    
Max Wind Speed 33 mph    
Max Gust Speed 41 mph    
T = Trace of Precipitation, MM = Missing Value Source: Averaged Metar Reports

Daily Weather History Graph

Daily Weather History Graph

Search for Another Location

Airport:

Trip Planner

Search our weather history database for the weather conditions in past years. The results will help you decide how hot, cold, wet, or windy it might be!

Date:

Astronomy

Oct. 24, 2012 Rise Set
Actual Time 7:34 AM ADT 6:00 PM ADT
Civil Twilight 7:03 AM ADT 6:31 PM ADT
Nautical Twilight 6:28 AM ADT 7:07 PM ADT
Astronomical Twilight 5:53 AM ADT 7:42 PM ADT
Moon 3:29 PM ADT (10/24) 2:07 AM ADT (10/24)
Length of Visible Light 11h 27m
Length of Day
10h 25m
Waxing Gibbous, 75% of the Moon is Illuminated
Oct 24
Waxing Gibbous
Oct 29
Full
Nov 6
Last Quarter
Nov 13
New
Nov 20
First Quarter

Hourly Weather History & Observations

Time (ADT) Temp. Windchill Dew Point Humidity Pressure Visibility Wind Dir Wind Speed Gust Speed Precip Events Conditions
12:00 AM 44.6 °F 35.1 °F 38.1 °F 78% 29.83 in - NW 27.6 mph - N/A   Unknown
12:20 AM 44.8 °F 35.5 °F 38.1 °F 77% - - NW 26.5 mph - N/A   Unknown
12:40 AM 45.0 °F 35.8 °F 38.8 °F 79% - - NW 26.5 mph - N/A   Unknown
1:00 AM 44.6 °F 35.1 °F 38.3 °F 79% 29.83 in - NW 27.6 mph - N/A   Unknown
1:20 AM 44.4 °F 35.3 °F 38.7 °F 80% - - NW 25.3 mph - N/A   Unknown
1:40 AM 44.4 °F 35.3 °F 37.9 °F 78% - - WNW 25.3 mph 32.2 mph N/A   Unknown
2:00 AM 43.9 °F 34.1 °F 37.6 °F 78% 29.84 in - NW 27.6 mph - N/A   Unknown
2:20 AM 44.1 °F 35.0 °F 37.8 °F 78% - - NW 24.2 mph - N/A   Unknown
2:40 AM 44.6 °F 35.7 °F 38.1 °F 78% - - WNW 24.2 mph - N/A   Unknown
3:00 AM 44.4 °F 35.3 °F 37.6 °F 77% 29.85 in - NW 25.3 mph - N/A   Unknown
3:20 AM 43.0 °F 34.0 °F 37.9 °F 82% - - NW 21.9 mph 31.1 mph N/A   Unknown
3:40 AM 43.2 °F 33.4 °F 38.5 °F 84% - - NW 26.5 mph - N/A   Unknown
4:00 AM 43.7 °F 34.1 °F 37.6 °F 79% 29.86 in - NW 26.5 mph - N/A   Unknown
4:40 AM 43.2 °F 34.5 °F 37.6 °F 81% - - WNW 20.7 mph 32.2 mph N/A   Unknown
5:00 AM 43.5 °F 34.0 °F 37.9 °F 81% 29.87 in - NW 25.3 mph - N/A   Unknown
5:20 AM 43.5 °F 34.7 °F 37.6 °F 80% - - NW 21.9 mph - N/A   Unknown
5:40 AM 43.9 °F 35.0 °F 37.2 °F 77% - - NW 23.0 mph 29.9 mph N/A   Unknown
6:20 AM 43.7 °F 35.0 °F 37.6 °F 79% - - NW 21.9 mph - N/A   Unknown
6:40 AM 43.3 °F 34.2 °F 37.2 °F 79% - - NW 23.0 mph - N/A   Unknown
7:00 AM 43.0 °F 33.5 °F 37.0 °F 80% 29.90 in - WNW 24.2 mph - N/A   Unknown
7:20 AM 43.5 °F 34.7 °F 36.9 °F 77% - - NW 21.9 mph 32.2 mph N/A   Unknown
7:40 AM 43.3 °F 33.8 °F 35.2 °F 73% - - NW 25.3 mph - N/A   Unknown
8:00 AM 43.5 °F 34.0 °F 36.5 °F 76% 29.91 in - NW 25.3 mph - N/A   Unknown
8:20 AM 43.9 °F 35.0 °F 37.6 °F 78% - - NW 23.0 mph - N/A   Unknown
9:00 AM 44.2 °F 35.0 °F 37.6 °F 77% 29.93 in - NW 25.3 mph 39.1 mph N/A   Unknown
9:20 AM 43.5 °F 34.0 °F 36.5 °F 76% - - WNW 25.3 mph 33.4 mph N/A   Unknown
9:40 AM 43.2 °F 34.5 °F 36.5 °F 77% - - NW 20.7 mph 26.5 mph N/A   Unknown
10:00 AM 44.2 °F 34.8 °F 36.9 °F 75% 29.93 in - WNW 26.5 mph - N/A   Unknown
10:20 AM 44.2 °F 35.9 °F 37.4 °F 77% - - NW 20.7 mph - N/A   Unknown
10:40 AM 44.2 °F 35.7 °F 36.9 °F 75% - - NW 21.9 mph 28.8 mph N/A   Unknown
11:00 AM 43.0 °F 33.3 °F 36.3 °F 77% 29.94 in - WNW 25.3 mph 35.7 mph N/A   Unknown
11:20 AM 43.5 °F 34.5 °F 36.9 °F 77% - - NW 23.0 mph 31.1 mph N/A   Unknown
11:40 AM 44.2 °F 35.2 °F 37.0 °F 76% - - NW 24.2 mph 31.1 mph N/A   Unknown
12:00 PM 43.0 °F 32.9 °F 37.8 °F 82% 29.94 in - NW 27.6 mph - N/A   Unknown
12:20 PM 43.7 °F 33.9 °F 37.6 °F 79% - - NW 27.6 mph - N/A   Unknown
12:40 PM 44.2 °F 35.2 °F 39.0 °F 82% - - NW 24.2 mph 32.2 mph N/A   Unknown
1:00 PM 44.6 °F 35.1 °F 37.6 °F 76% 29.92 in - NW 27.6 mph - N/A   Unknown
1:20 PM 44.4 °F 35.5 °F 36.1 °F 73% - - NW 24.2 mph 31.1 mph N/A   Unknown
1:40 PM 44.2 °F 34.8 °F 36.7 °F 75% - - NW 26.5 mph 33.4 mph N/A   Unknown
2:00 PM 42.8 °F 32.7 °F 37.0 °F 80% 29.93 in - NW 27.6 mph 34.5 mph N/A   Unknown
2:20 PM 43.0 °F 32.9 °F 36.0 °F 76% - - NW 27.6 mph 34.5 mph N/A   Unknown
2:40 PM 43.2 °F 33.4 °F 37.4 °F 80% - - NW 26.5 mph - N/A   Unknown
3:00 PM 41.7 °F 30.8 °F 36.9 °F 83% 29.94 in - NW 29.9 mph 38.0 mph N/A   Unknown
3:20 PM 43.2 °F 33.4 °F 35.6 °F 75% - - NW 26.5 mph 34.5 mph N/A   Unknown
3:40 PM 41.0 °F 30.7 °F 36.1 °F 83% - - NW 25.3 mph 34.5 mph N/A   Unknown
4:20 PM 41.2 °F 32.1 °F 36.5 °F 83% - - NW 19.6 mph 31.1 mph N/A   Unknown
4:40 PM 41.9 °F 31.5 °F 36.5 °F 81% - - WNW 27.6 mph 35.7 mph N/A   Unknown
5:20 PM 41.0 °F 29.7 °F 36.3 °F 83% - - NW 31.1 mph 39.1 mph N/A   Unknown
5:40 PM 41.5 °F 30.6 °F 37.2 °F 85% - - NW 29.9 mph 41.4 mph N/A   Unknown
6:00 PM 42.1 °F 31.0 °F 37.2 °F 83% 29.96 in - NW 32.2 mph 38.0 mph N/A   Unknown
6:20 PM 41.5 °F 30.6 °F 36.9 °F 83% - - NW 29.9 mph 35.7 mph N/A   Unknown
6:40 PM 40.3 °F 28.5 °F 37.0 °F 88% - - NW 32.2 mph 39.1 mph N/A   Unknown
7:00 PM 41.7 °F 30.3 °F 38.5 °F 88% 29.98 in - NW 33.4 mph - N/A   Unknown
7:20 PM 42.1 °F 31.7 °F 38.1 °F 86% - - NW 27.6 mph 34.5 mph N/A   Unknown
7:40 PM 42.1 °F 31.7 °F 37.4 °F 83% - - NW 27.6 mph 35.7 mph N/A   Unknown
8:00 PM 40.3 °F 28.9 °F 37.0 °F 88% 30.01 in - NNW 29.9 mph - N/A   Unknown
8:20 PM 40.8 °F 30.7 °F 37.9 °F 89% - - NW 24.2 mph 31.1 mph N/A   Unknown
8:40 PM 40.8 °F 30.2 °F 37.0 °F 86% - - NNW 26.5 mph 34.5 mph N/A   Unknown
9:00 PM 41.5 °F 31.0 °F 37.4 °F 85% 30.01 in - NNW 27.6 mph - N/A   Unknown
9:20 PM 41.5 °F 31.2 °F 37.8 °F 86% - - NNW 26.5 mph 34.5 mph N/A   Unknown
9:40 PM 41.2 °F 30.7 °F 36.5 °F 83% - - NW 26.5 mph 33.4 mph N/A   Unknown
10:20 PM 40.8 °F 30.9 °F 36.0 °F 83% - - North 23.0 mph - N/A   Unknown
10:40 PM 41.2 °F 31.4 °F 36.7 °F 84% - - NNW 23.0 mph 32.2 mph N/A   Unknown
11:00 PM 40.5 °F 30.0 °F 36.5 °F 86% 30.03 in - NNW 25.3 mph - N/A   Unknown
11:20 PM 41.4 °F 31.2 °F 36.7 °F 83% - - NNW 25.3 mph 32.2 mph N/A   Unknown
11:40 PM 41.4 °F 31.4 °F 35.8 °F 81% - - NW 24.2 mph 29.9 mph N/A   Unknown